createdAt,value
2019-02-27T00:01:16.760Z,83.19
2019-02-27T00:03:44.807Z,83.37
2019-02-27T00:06:15.872Z,83.00
2019-02-27T00:08:45.702Z,82.76
2019-02-27T00:11:15.333Z,83.27
2019-02-27T00:13:44.889Z,82.99
2019-02-27T00:16:14.434Z,82.30
2019-02-27T00:18:44.010Z,82.24
2019-02-27T00:21:13.537Z,81.89
2019-02-27T00:23:43.048Z,81.81
2019-02-27T00:26:12.644Z,82.14
2019-02-27T00:28:42.283Z,81.59
2019-02-27T00:31:12.086Z,81.42
2019-02-27T00:33:41.661Z,81.36
2019-02-27T00:36:12.288Z,80.56
2019-02-27T00:38:42.458Z,80.62
2019-02-27T00:41:12.955Z,80.67
2019-02-27T00:43:42.674Z,81.05
2019-02-27T00:46:13.341Z,80.18
2019-02-27T00:48:43.568Z,80.31
2019-02-27T00:51:13.163Z,80.13
2019-02-27T00:53:42.718Z,79.59
2019-02-27T00:56:12.896Z,79.62
2019-02-27T00:58:42.666Z,79.21
2019-02-27T01:01:12.600Z,79.19
2019-02-27T01:03:42.868Z,79.17
2019-02-27T01:06:14.828Z,79.23
2019-02-27T01:08:43.714Z,79.37
2019-02-27T01:11:13.272Z,79.33
2019-02-27T01:13:42.830Z,79.44
2019-02-27T01:16:16.942Z,79.51
2019-02-27T01:18:43.768Z,79.48
2019-02-27T01:21:13.307Z,79.65
2019-02-27T01:23:44.691Z,79.52
2019-02-27T01:26:15.367Z,79.40
2019-02-27T01:28:45.626Z,79.31
2019-02-27T01:31:15.184Z,79.17
2019-02-27T01:33:44.743Z,79.22
2019-02-27T01:36:14.362Z,78.93
2019-02-27T01:38:43.986Z,78.98
2019-02-27T01:41:13.635Z,78.94
2019-02-27T01:43:43.187Z,79.10
2019-02-27T01:46:12.705Z,79.07
2019-02-27T01:48:43.641Z,79.10
2019-02-27T01:51:13.397Z,78.98
2019-02-27T01:53:42.990Z,79.60
2019-02-27T01:56:12.557Z,79.47
2019-02-27T01:58:44.116Z,79.72
2019-02-27T02:01:13.357Z,79.93
2019-02-27T02:03:47.212Z,79.77
2019-02-27T02:06:14.176Z,79.80
2019-02-27T02:08:48.018Z,79.92
2019-02-27T02:11:15.037Z,79.79
2019-02-27T02:14:22.727Z,79.78
2019-02-27T02:17:12.561Z,79.52
2019-02-27T02:20:30.589Z,79.50
2019-02-27T02:23:27.007Z,79.26
2019-02-27T02:26:28.393Z,79.72
2019-02-27T02:29:33.743Z,80.01
2019-02-27T02:32:22.501Z,80.25
2019-02-27T02:35:15.803Z,80.38
2019-02-27T02:38:35.494Z,80.54
2019-02-27T02:41:43.596Z,80.59
2019-02-27T02:44:40.193Z,81.00
2019-02-27T02:47:40.926Z,81.17
2019-02-27T02:50:33.147Z,81.75
2019-02-27T02:54:01.736Z,82.00
2019-02-27T02:57:20.311Z,82.42
2019-02-27T03:00:20.191Z,83.15
2019-02-27T03:03:36.200Z,83.83
2019-02-27T03:06:40.941Z,84.39
2019-02-27T03:09:32.483Z,85.01
2019-02-27T03:12:35.107Z,85.38
2019-02-27T03:15:31.229Z,86.43
2019-02-27T03:18:15.115Z,86.77
2019-02-27T03:20:52.313Z,87.85
2019-02-27T03:24:07.303Z,88.94
2019-02-27T03:27:14.567Z,89.77
2019-02-27T03:30:34.031Z,90.52
2019-02-27T03:33:43.497Z,91.02
2019-02-27T03:36:42.842Z,90.89
2019-02-27T03:39:35.934Z,90.91
2019-02-27T03:42:52.330Z,91.46
2019-02-27T03:46:09.259Z,91.88
2019-02-27T03:49:05.004Z,91.84
2019-02-27T03:52:23.283Z,91.61
2019-02-27T03:55:50.184Z,91.13
2019-02-27T03:58:53.811Z,90.48
2019-02-27T04:01:36.529Z,89.89
2019-02-27T04:04:51.784Z,89.46
2019-02-27T04:08:08.610Z,89.20
2019-02-27T04:10:35.533Z,88.54
2019-02-27T04:13:05.071Z,88.03
2019-02-27T04:15:35.769Z,87.53
2019-02-27T04:18:03.548Z,87.19
2019-02-27T04:20:33.119Z,87.04
2019-02-27T04:23:03.096Z,86.79
2019-02-27T04:25:32.697Z,86.66
2019-02-27T04:28:02.272Z,86.62
2019-02-27T04:30:31.837Z,86.19
2019-02-27T04:33:01.415Z,86.16
2019-02-27T04:35:30.968Z,86.27
2019-02-27T04:38:00.602Z,86.63
2019-02-27T04:40:30.219Z,86.92
2019-02-27T04:42:59.965Z,86.71
2019-02-27T04:45:29.573Z,85.93
2019-02-27T04:47:59.212Z,85.85
2019-02-27T04:50:28.850Z,83.71
2019-02-27T04:52:58.664Z,83.36
2019-02-27T04:55:28.226Z,83.49
2019-02-27T04:57:57.900Z,82.48
2019-02-27T05:00:27.480Z,81.63
2019-02-27T05:02:57.025Z,81.83
2019-02-27T05:05:26.589Z,80.39
2019-02-27T05:07:56.232Z,79.45
2019-02-27T05:10:25.828Z,79.66
2019-02-27T05:12:55.387Z,79.74
2019-02-27T05:15:24.957Z,78.87
2019-02-27T05:17:55.664Z,79.14
2019-02-27T05:20:25.955Z,78.49
2019-02-27T05:23:00.121Z,78.76
2019-02-27T05:25:26.834Z,78.58
2019-02-27T05:27:56.374Z,77.88
2019-02-27T05:30:25.953Z,77.65
2019-02-27T05:32:55.519Z,77.21
2019-02-27T05:35:25.196Z,77.83
2019-02-27T05:37:54.789Z,77.48
2019-02-27T05:40:25.933Z,77.24
2019-02-27T05:42:55.622Z,76.36
2019-02-27T05:45:25.188Z,76.80
2019-02-27T05:47:54.710Z,76.63
2019-02-27T05:50:24.256Z,77.59
2019-02-27T05:52:53.811Z,77.81
2019-02-27T05:55:23.431Z,79.05
2019-02-27T05:57:52.984Z,78.62
2019-02-27T06:00:22.629Z,78.83
2019-02-27T06:02:52.215Z,78.50
2019-02-27T06:05:21.817Z,78.84
2019-02-27T06:07:51.456Z,79.16
2019-02-27T06:10:23.427Z,78.33
2019-02-27T06:12:52.518Z,79.29
2019-02-27T06:15:22.127Z,79.31
2019-02-27T06:17:51.811Z,79.85
2019-02-27T06:20:21.447Z,79.32
2019-02-27T06:22:51.018Z,79.61
2019-02-27T06:25:23.350Z,80.67
2019-02-27T06:27:51.950Z,81.53
2019-02-27T06:30:21.689Z,81.91
2019-02-27T06:32:51.250Z,81.60
2019-02-27T06:35:20.829Z,80.97
2019-02-27T06:37:51.329Z,81.58
2019-02-27T06:40:21.114Z,81.07
2019-02-27T06:42:53.401Z,81.20
2019-02-27T06:45:22.058Z,80.90
2019-02-27T06:47:51.688Z,81.05
2019-02-27T06:50:25.235Z,81.23
2019-02-27T06:52:52.515Z,81.57
2019-02-27T06:55:22.138Z,81.03
2019-02-27T06:57:51.710Z,80.83
2019-02-27T07:00:21.341Z,81.54
2019-02-27T07:02:55.260Z,81.64
2019-02-27T07:05:22.204Z,81.20
2019-02-27T07:07:51.905Z,81.52
2019-02-27T07:10:21.544Z,80.97
2019-02-27T07:12:54.415Z,81.17
2019-02-27T07:15:22.516Z,79.86
2019-02-27T07:17:52.158Z,79.96
2019-02-27T07:20:24.542Z,79.77
2019-02-27T07:22:53.050Z,79.96
2019-02-27T07:25:22.590Z,78.82
2019-02-27T07:27:52.166Z,77.96
2019-02-27T07:30:23.732Z,77.48
2019-02-27T07:32:53.039Z,76.97
2019-02-27T07:35:25.490Z,76.52
2019-02-27T07:37:53.969Z,75.42
2019-02-27T07:40:23.587Z,75.37
2019-02-27T07:42:53.119Z,74.73
2019-02-27T07:45:22.965Z,74.29
2019-02-27T07:47:52.590Z,73.31
2019-02-27T07:50:22.171Z,72.02
2019-02-27T07:52:52.216Z,71.90
2019-02-27T07:55:23.642Z,71.50
2019-02-27T07:57:58.308Z,71.46
2019-02-27T08:00:26.414Z,71.68
2019-02-27T08:02:56.144Z,70.95
2019-02-27T08:05:28.492Z,70.76
2019-02-27T08:07:57.065Z,69.46
2019-02-27T08:10:28.083Z,69.41
2019-02-27T08:12:57.768Z,69.73
2019-02-27T08:15:27.330Z,69.27
2019-02-27T08:17:58.081Z,69.93
2019-02-27T08:20:28.192Z,69.89
2019-02-27T08:22:59.943Z,69.77
2019-02-27T08:25:29.617Z,69.73
2019-02-27T08:27:59.150Z,69.01
2019-02-27T08:30:28.807Z,68.22
2019-02-27T08:32:58.389Z,68.58
2019-02-27T08:35:27.955Z,66.14
2019-02-27T08:38:02.657Z,64.95
2019-02-27T08:40:28.841Z,64.03
2019-02-27T08:42:58.430Z,64.39
2019-02-27T08:45:28.115Z,64.08
2019-02-27T08:47:57.735Z,64.27
2019-02-27T08:50:29.200Z,64.43
2019-02-27T08:53:00.142Z,63.22
2019-02-27T08:55:29.823Z,62.52
2019-02-27T08:57:59.356Z,61.11
2019-02-27T09:00:29.485Z,60.19
2019-02-27T09:03:02.448Z,59.97
2019-02-27T09:05:30.498Z,57.53
2019-02-27T09:08:00.182Z,57.12
2019-02-27T09:10:30.796Z,55.68
2019-02-27T09:13:05.523Z,54.16
2019-02-27T09:15:31.916Z,52.89
2019-02-27T09:18:01.915Z,52.19
2019-02-27T09:20:32.017Z,52.28
2019-02-27T09:23:01.554Z,53.24
2019-02-27T09:25:31.162Z,52.86
2019-02-27T09:28:00.759Z,53.58
2019-02-27T09:30:30.354Z,53.20
2019-02-27T09:32:59.906Z,52.99
2019-02-27T09:35:32.216Z,52.74
2019-02-27T09:38:00.922Z,52.70
2019-02-27T09:40:30.606Z,52.63
2019-02-27T09:43:00.273Z,51.17
2019-02-27T09:45:31.314Z,52.05
2019-02-27T09:48:01.251Z,49.32
2019-02-27T09:50:36.160Z,48.83
2019-02-27T09:53:05.715Z,47.39
2019-02-27T09:55:35.315Z,47.33
2019-02-27T09:58:09.902Z,48.68
2019-02-27T10:00:47.278Z,49.32
2019-02-27T10:03:20.213Z,49.53
2019-02-27T10:05:48.362Z,49.83
2019-02-27T10:08:18.290Z,50.99
2019-02-27T10:10:47.863Z,52.19
2019-02-27T10:13:17.482Z,52.24
2019-02-27T10:15:47.099Z,53.81
2019-02-27T10:18:18.880Z,55.40
2019-02-27T10:20:48.019Z,55.86
2019-02-27T10:23:17.550Z,55.85
2019-02-27T10:25:49.786Z,54.98
2019-02-27T10:28:19.000Z,55.49
2019-02-27T10:30:50.055Z,53.46
2019-02-27T10:33:19.933Z,52.50
2019-02-27T10:35:49.488Z,50.53
2019-02-27T10:38:19.067Z,50.56
2019-02-27T10:40:48.658Z,49.84
2019-02-27T10:43:18.273Z,48.03
2019-02-27T10:45:49.439Z,47.73
2019-02-27T10:48:19.102Z,45.71
2019-02-27T10:50:48.705Z,43.45
2019-02-27T10:53:18.319Z,44.25
2019-02-27T10:55:49.318Z,43.71
2019-02-27T10:58:19.195Z,43.35
2019-02-27T11:00:50.307Z,44.15
2019-02-27T11:03:19.897Z,44.66
2019-02-27T11:05:52.454Z,45.35
2019-02-27T11:08:20.787Z,46.32
2019-02-27T11:10:50.368Z,48.22
2019-02-27T11:13:19.900Z,49.36
2019-02-27T11:15:49.484Z,50.01
2019-02-27T11:18:19.068Z,49.27
2019-02-27T11:20:48.608Z,51.27
2019-02-27T11:23:18.367Z,51.35
2019-02-27T11:25:48.016Z,50.42
2019-02-27T11:28:17.679Z,50.71
2019-02-27T11:30:47.277Z,49.87
2019-02-27T11:33:25.713Z,49.29
2019-02-27T11:35:48.222Z,50.76
2019-02-27T11:38:17.897Z,49.09
2019-02-27T11:40:47.437Z,50.28
2019-02-27T11:43:17.272Z,49.73
2019-02-27T11:45:46.907Z,50.44
2019-02-27T11:48:16.457Z,50.11
2019-02-27T11:50:45.991Z,49.72
2019-02-27T11:53:15.605Z,49.92
2019-02-27T11:55:47.098Z,49.91
2019-02-27T11:58:16.534Z,49.65
2019-02-27T12:00:46.079Z,48.63
2019-02-27T12:03:15.621Z,48.43
2019-02-27T12:05:45.335Z,49.15
2019-02-27T12:08:14.897Z,49.60
2019-02-27T12:10:44.443Z,49.46
2019-02-27T12:13:14.006Z,48.62
2019-02-27T12:15:44.271Z,48.10
2019-02-27T12:18:13.795Z,47.32
2019-02-27T12:20:43.387Z,46.73
2019-02-27T12:23:12.937Z,45.39
2019-02-27T12:25:42.908Z,43.87
2019-02-27T12:28:12.451Z,44.44
2019-02-27T12:30:42.124Z,44.69
2019-02-27T12:33:11.755Z,46.20
2019-02-27T12:35:44.169Z,46.74
2019-02-27T12:38:12.683Z,46.33
2019-02-27T12:40:42.536Z,46.86
2019-02-27T12:43:17.247Z,47.85
2019-02-27T12:45:43.481Z,48.98
2019-02-27T12:48:13.391Z,49.43
2019-02-27T12:50:43.030Z,50.67
2019-02-27T12:53:12.687Z,48.31
2019-02-27T12:55:42.288Z,46.86
2019-02-27T12:58:13.423Z,47.84
2019-02-27T13:00:43.284Z,47.70
2019-02-27T13:03:12.857Z,49.85
2019-02-27T13:05:42.469Z,49.05
2019-02-27T13:08:12.155Z,49.73
2019-02-27T13:10:41.691Z,50.30
2019-02-27T13:13:11.288Z,50.44
2019-02-27T13:15:41.705Z,49.33
2019-02-27T13:18:11.526Z,48.05
2019-02-27T13:20:43.025Z,48.11
2019-02-27T13:23:12.486Z,47.13
2019-02-27T13:25:42.032Z,47.29
2019-02-27T13:28:14.643Z,47.99
2019-02-27T13:30:42.913Z,48.28
2019-02-27T13:33:12.550Z,48.13
2019-02-27T13:35:42.101Z,49.34
2019-02-27T13:38:11.865Z,49.65
2019-02-27T13:40:41.444Z,51.00
2019-02-27T13:43:10.993Z,51.19
2019-02-27T13:45:40.570Z,53.10
2019-02-27T13:48:10.225Z,51.99
2019-02-27T13:50:39.890Z,51.91
2019-02-27T13:53:09.593Z,52.24
2019-02-27T13:55:39.214Z,52.63
2019-02-27T13:58:08.840Z,53.47
2019-02-27T14:00:38.634Z,52.85
2019-02-27T14:03:12.110Z,53.90
2019-02-27T14:05:39.498Z,53.91
2019-02-27T14:08:09.090Z,54.55
2019-02-27T14:10:38.670Z,54.45
2019-02-27T14:13:09.756Z,55.42
2019-02-27T14:15:39.562Z,55.17
2019-02-27T14:18:13.465Z,55.54
2019-02-27T14:20:42.389Z,55.40
2019-02-27T14:23:14.547Z,55.88
2019-02-27T14:25:43.345Z,56.10
2019-02-27T14:28:13.067Z,57.05
2019-02-27T14:30:45.155Z,57.15
2019-02-27T14:33:14.706Z,57.77
2019-02-27T14:35:44.454Z,57.82
2019-02-27T14:38:14.007Z,58.34
2019-02-27T14:40:43.618Z,58.38
2019-02-27T14:43:13.236Z,59.61
2019-02-27T14:45:42.795Z,60.22
2019-02-27T14:48:12.460Z,59.72
2019-02-27T14:50:42.038Z,59.61
2019-02-27T14:53:11.614Z,60.37
2019-02-27T14:55:41.206Z,60.71
2019-02-27T14:58:10.758Z,60.60
2019-02-27T15:00:41.199Z,61.79
2019-02-27T15:03:10.930Z,61.73
2019-02-27T15:05:44.752Z,62.19
2019-02-27T15:08:11.826Z,61.36
2019-02-27T15:10:42.502Z,61.00
2019-02-27T15:13:12.216Z,61.25
2019-02-27T15:15:43.762Z,60.45
2019-02-27T15:18:14.036Z,60.07
2019-02-27T15:20:43.697Z,59.92
2019-02-27T15:23:13.276Z,60.15
2019-02-27T15:25:43.415Z,59.71
2019-02-27T15:28:13.155Z,59.41
2019-02-27T15:30:46.344Z,59.79
2019-02-27T15:33:14.137Z,60.13
2019-02-27T15:35:43.709Z,60.53
2019-02-27T15:38:13.319Z,60.36
2019-02-27T15:40:42.943Z,60.89
2019-02-27T15:43:16.952Z,61.10
2019-02-27T15:45:48.058Z,61.13
2019-02-27T15:48:15.249Z,62.02
2019-02-27T15:50:44.819Z,61.83
2019-02-27T15:53:15.161Z,61.86
2019-02-27T15:55:45.499Z,61.25
2019-02-27T15:58:16.730Z,61.68
2019-02-27T16:00:52.341Z,63.01
2019-02-27T16:03:17.902Z,62.52
2019-02-27T16:05:47.497Z,61.80
2019-02-27T16:08:17.173Z,62.02
2019-02-27T16:10:54.568Z,62.15
2019-02-27T16:13:18.174Z,62.69
2019-02-27T16:15:48.541Z,63.15
2019-02-27T16:18:18.817Z,63.40
2019-02-27T16:20:49.985Z,63.93
2019-02-27T16:23:19.694Z,64.36
2019-02-27T16:25:52.832Z,64.92
2019-02-27T16:28:20.709Z,65.37
2019-02-27T16:30:50.291Z,66.16
2019-02-27T16:33:24.026Z,66.76
2019-02-27T16:35:51.199Z,66.99
2019-02-27T16:38:20.884Z,67.60
2019-02-27T16:40:52.615Z,67.85
2019-02-27T16:43:21.984Z,68.38
2019-02-27T16:45:51.564Z,68.66
2019-02-27T16:48:21.159Z,69.32
2019-02-27T16:50:50.698Z,69.53
2019-02-27T16:53:20.280Z,69.96
2019-02-27T16:55:49.821Z,70.25
2019-02-27T16:58:19.450Z,70.66
2019-02-27T17:00:49.014Z,70.95
2019-02-27T17:03:18.569Z,71.59
2019-02-27T17:05:49.711Z,71.94
2019-02-27T17:08:19.463Z,72.53
2019-02-27T17:10:51.759Z,72.58
2019-02-27T17:13:20.417Z,72.42
2019-02-27T17:15:50.161Z,72.69
2019-02-27T17:18:19.732Z,73.46
2019-02-27T17:20:49.329Z,73.19
2019-02-27T17:23:19.200Z,72.57
2019-02-27T17:25:48.769Z,72.38
2019-02-27T17:28:18.307Z,72.83
2019-02-27T17:30:47.991Z,72.73
2019-02-27T17:33:17.557Z,72.79
2019-02-27T17:35:47.127Z,73.24
2019-02-27T17:38:16.768Z,73.79
2019-02-27T17:40:46.410Z,73.80
2019-02-27T17:43:16.114Z,73.59
2019-02-27T17:45:46.939Z,73.60
2019-02-27T17:48:17.067Z,73.70
2019-02-27T17:50:46.623Z,74.10
2019-02-27T17:53:16.168Z,74.34
2019-02-27T17:55:45.712Z,74.00
2019-02-27T17:58:15.295Z,73.68
2019-02-27T18:00:50.091Z,73.46
2019-02-27T18:03:16.712Z,73.63
2019-02-27T18:05:46.273Z,73.62
2019-02-27T18:08:17.060Z,73.38
2019-02-27T18:10:46.830Z,73.10
2019-02-27T18:13:16.422Z,72.82
2019-02-27T18:15:45.993Z,72.58
2019-02-27T18:18:15.562Z,72.54
2019-02-27T18:20:45.119Z,72.63
2019-02-27T18:23:14.696Z,72.45
2019-02-27T18:25:44.392Z,72.60
2019-02-27T18:28:13.918Z,72.72
2019-02-27T18:30:43.504Z,72.67
2019-02-27T18:33:14.261Z,72.50
2019-02-27T18:35:44.565Z,72.38
2019-02-27T18:38:14.113Z,72.14
2019-02-27T18:40:43.749Z,72.23
2019-02-27T18:43:13.358Z,72.45
2019-02-27T18:45:42.965Z,72.54
2019-02-27T18:48:12.618Z,72.50
2019-02-27T18:50:42.207Z,72.62
2019-02-27T18:53:13.475Z,72.63
2019-02-27T18:55:44.102Z,73.04
2019-02-27T18:58:13.841Z,73.03
2019-02-27T19:00:43.365Z,73.34
2019-02-27T19:03:12.966Z,73.29
2019-02-27T19:05:42.625Z,73.07
2019-02-27T19:08:12.201Z,72.98
2019-02-27T19:10:42.723Z,73.02
2019-02-27T19:13:12.409Z,73.00
2019-02-27T19:15:45.513Z,73.17
2019-02-27T19:18:13.430Z,72.83
2019-02-27T19:20:43.026Z,72.59
2019-02-27T19:23:17.146Z,73.21
2019-02-27T19:25:43.916Z,73.09
2019-02-27T19:28:13.475Z,73.41
2019-02-27T19:30:43.071Z,74.17
2019-02-27T19:33:12.728Z,74.48
2019-02-27T19:35:43.012Z,74.18
2019-02-27T19:38:13.735Z,74.89
2019-02-27T19:40:43.462Z,75.30
2019-02-27T19:43:14.214Z,75.45
2019-02-27T19:45:43.828Z,76.30
2019-02-27T19:48:13.741Z,75.85
2019-02-27T19:50:46.259Z,76.08
2019-02-27T19:53:14.597Z,77.72
2019-02-27T19:55:44.158Z,78.21
2019-02-27T19:58:17.178Z,78.37
2019-02-27T20:00:48.445Z,79.21
2019-02-27T20:03:16.653Z,79.74
2019-02-27T20:05:46.276Z,79.80
2019-02-27T20:08:15.818Z,80.36
2019-02-27T20:10:45.519Z,81.26
2019-02-27T20:13:15.125Z,81.90
2019-02-27T20:15:45.763Z,82.12
2019-02-27T20:18:16.078Z,81.97
2019-02-27T20:20:45.608Z,81.95
2019-02-27T20:23:15.286Z,82.21
2019-02-27T20:25:45.118Z,81.91
2019-02-27T20:28:14.697Z,82.13
2019-02-27T20:30:44.306Z,81.82
2019-02-27T20:33:13.864Z,81.98
2019-02-27T20:35:43.622Z,82.23
2019-02-27T20:38:16.009Z,82.59
2019-02-27T20:40:44.682Z,82.54
2019-02-27T20:43:14.321Z,82.35
2019-02-27T20:45:44.102Z,82.50
2019-02-27T20:48:13.847Z,82.94
2019-02-27T20:50:44.622Z,84.38
2019-02-27T20:53:14.236Z,84.13
2019-02-27T20:55:44.071Z,84.13
2019-02-27T20:58:16.743Z,84.17
2019-02-27T21:00:45.013Z,84.31
2019-02-27T21:03:14.568Z,84.60
2019-02-27T21:05:44.181Z,84.95
2019-02-27T21:08:13.926Z,85.13
2019-02-27T21:10:43.574Z,85.03
2019-02-27T21:13:15.963Z,85.23
2019-02-27T21:15:44.518Z,85.93
2019-02-27T21:18:14.201Z,86.04
2019-02-27T21:20:45.208Z,86.16
2019-02-27T21:23:15.193Z,86.42
2019-02-27T21:25:48.726Z,86.16
2019-02-27T21:28:20.867Z,85.94
2019-02-27T21:30:51.835Z,86.53
2019-02-27T21:33:18.724Z,86.44
2019-02-27T21:35:48.335Z,86.29
2019-02-27T21:38:17.896Z,86.17
2019-02-27T21:40:47.462Z,86.20
2019-02-27T21:43:16.995Z,85.95
2019-02-27T21:45:46.742Z,85.98
2019-02-27T21:48:16.313Z,85.86
2019-02-27T21:50:45.854Z,85.70
2019-02-27T21:53:15.456Z,85.64
2019-02-27T21:55:45.498Z,85.35
2019-02-27T21:58:20.292Z,85.51
2019-02-27T22:00:48.191Z,85.33
2019-02-27T22:03:17.909Z,85.33
2019-02-27T22:05:52.548Z,85.83
2019-02-27T22:08:19.234Z,85.82
2019-02-27T22:10:53.302Z,85.73
2019-02-27T22:13:28.889Z,85.62
2019-02-27T22:15:55.926Z,85.99
2019-02-27T22:18:22.851Z,86.84
2019-02-27T22:20:52.392Z,87.71
2019-02-27T22:23:21.939Z,88.71
2019-02-27T22:25:51.499Z,89.99
2019-02-27T22:28:21.060Z,90.98
2019-02-27T22:30:50.599Z,91.90
2019-02-27T22:33:22.953Z,92.86
2019-02-27T22:35:51.493Z,94.18
2019-02-27T22:38:25.558Z,94.48
2019-02-27T22:40:52.342Z,95.14
2019-02-27T22:43:22.807Z,96.43
2019-02-27T22:45:52.466Z,97.18
2019-02-27T22:48:22.024Z,97.46
2019-02-27T22:50:51.594Z,97.29
2019-02-27T22:53:21.136Z,96.89
2019-02-27T22:55:50.790Z,97.13
2019-02-27T22:58:20.359Z,97.53
2019-02-27T23:01:16.526Z,97.98
2019-02-27T23:03:51.661Z,98.24
2019-02-27T23:06:21.201Z,98.84
2019-02-27T23:08:50.781Z,99.26
2019-02-27T23:11:20.385Z,99.39
2019-02-27T23:13:49.970Z,99.76
2019-02-27T23:16:20.489Z,99.71
2019-02-27T23:18:50.055Z,99.90
2019-02-27T23:21:19.742Z,99.91
2019-02-27T23:23:49.284Z,99.82
2019-02-27T23:26:20.159Z,99.66
2019-02-27T23:28:50.266Z,99.74
2019-02-27T23:31:23.302Z,100.00
2019-02-27T23:33:51.264Z,100.00
2019-02-27T23:36:22.040Z,100.00
2019-02-27T23:38:52.173Z,100.00
2019-02-27T23:41:23.203Z,100.00
2019-02-27T23:43:53.041Z,100.00
2019-02-27T23:46:22.599Z,100.00
2019-02-27T23:48:52.258Z,100.00
2019-02-27T23:51:21.829Z,100.00
2019-02-27T23:53:51.458Z,100.00
2019-02-27T23:56:21.068Z,100.00
2019-02-27T23:58:50.688Z,100.00
